createdAt,value
2023-04-22T00:00:04.850Z,28.91
2023-04-22T00:01:04.902Z,28.92
2023-04-22T00:02:05.009Z,28.90
2023-04-22T00:03:05.114Z,28.90
2023-04-22T00:04:05.371Z,28.94
2023-04-22T00:05:05.164Z,28.92
2023-04-22T00:06:05.163Z,28.92
2023-04-22T00:07:05.204Z,28.93
2023-04-22T00:08:05.245Z,28.92
2023-04-22T00:09:05.242Z,28.93
2023-04-22T00:10:05.204Z,28.92
2023-04-22T00:11:05.208Z,28.92
2023-04-22T00:12:05.182Z,28.90
2023-04-22T00:13:05.168Z,28.90
2023-04-22T00:14:05.155Z,28.91
2023-04-22T00:15:05.164Z,28.91
2023-04-22T00:16:05.206Z,28.91
2023-04-22T00:17:05.101Z,28.90
2023-04-22T00:18:05.209Z,28.92
2023-04-22T00:19:05.188Z,28.91
2023-04-22T00:20:05.254Z,28.93
2023-04-22T00:21:05.233Z,28.96
2023-04-22T00:22:05.202Z,28.94
2023-04-22T00:23:05.187Z,28.97
2023-04-22T00:24:05.190Z,28.97
2023-04-22T00:25:05.170Z,28.98
2023-04-22T00:26:05.147Z,28.99
2023-04-22T00:27:05.113Z,28.98
2023-04-22T00:28:05.091Z,28.99
2023-04-22T00:29:05.140Z,28.99
2023-04-22T00:30:05.184Z,28.99
2023-04-22T00:31:05.283Z,29.03
2023-04-22T00:32:05.290Z,29.02
2023-04-22T00:33:05.441Z,28.98
2023-04-22T00:34:05.396Z,29.00
2023-04-22T00:35:05.455Z,29.00
2023-04-22T00:36:05.497Z,29.02
2023-04-22T00:37:05.536Z,29.02
2023-04-22T00:38:05.595Z,29.03
2023-04-22T00:39:05.654Z,29.02
2023-04-22T00:40:05.700Z,29.03
2023-04-22T00:41:05.767Z,29.01
2023-04-22T00:42:05.748Z,29.02
2023-04-22T00:43:05.731Z,29.02
2023-04-22T00:44:05.733Z,29.04
2023-04-22T00:45:05.711Z,29.03
2023-04-22T00:46:05.703Z,29.04
2023-04-22T00:47:05.733Z,29.02
2023-04-22T00:48:05.745Z,29.03
2023-04-22T00:49:05.659Z,29.01
2023-04-22T00:50:05.708Z,29.05
2023-04-22T00:51:05.746Z,29.06
2023-04-22T00:52:05.802Z,29.05
2023-04-22T00:53:05.850Z,29.05
2023-04-22T00:54:05.926Z,29.05
2023-04-22T00:55:05.955Z,29.05
2023-04-22T00:56:05.954Z,29.06
2023-04-22T00:57:05.925Z,29.06
2023-04-22T00:58:05.906Z,29.05
2023-04-22T00:59:05.902Z,29.07
2023-04-22T01:00:05.891Z,29.07
2023-04-22T01:01:05.951Z,29.07
2023-04-22T01:02:05.961Z,29.07
2023-04-22T01:03:06.017Z,29.08
2023-04-22T01:04:06.002Z,29.08
2023-04-22T01:05:05.950Z,29.09
2023-04-22T01:06:05.983Z,29.12
2023-04-22T01:07:06.026Z,29.12
2023-04-22T01:08:06.057Z,29.12
2023-04-22T01:09:06.102Z,29.11
2023-04-22T01:10:06.139Z,29.11
2023-04-22T01:11:06.199Z,29.10
2023-04-22T01:12:06.227Z,29.09
2023-04-22T01:13:06.284Z,29.13
2023-04-22T01:14:06.349Z,29.10
2023-04-22T01:15:06.369Z,29.13
2023-04-22T01:16:06.503Z,29.10
2023-04-22T01:17:06.494Z,29.11
2023-04-22T01:18:06.593Z,29.15
2023-04-22T01:19:06.546Z,29.14
2023-04-22T01:20:06.592Z,29.16
2023-04-22T01:21:06.655Z,29.16
2023-04-22T01:22:06.701Z,29.17
2023-04-22T01:23:06.762Z,29.15
2023-04-22T01:24:06.775Z,29.18
2023-04-22T01:25:06.835Z,29.17
2023-04-22T01:26:06.882Z,29.19
2023-04-22T01:27:06.935Z,29.18
2023-04-22T01:28:06.980Z,29.19
2023-04-22T01:29:07.062Z,29.21
2023-04-22T01:30:07.156Z,29.20
2023-04-22T01:31:07.103Z,29.19
2023-04-22T01:32:07.233Z,29.19
2023-04-22T01:33:07.147Z,29.19
2023-04-22T01:34:07.158Z,29.19
2023-04-22T01:35:07.256Z,29.18
2023-04-22T01:36:07.220Z,29.18
2023-04-22T01:37:07.261Z,29.18
2023-04-22T01:38:07.273Z,29.16
2023-04-22T01:39:07.298Z,29.18
2023-04-22T01:40:07.346Z,29.18
2023-04-22T01:41:07.408Z,29.19
2023-04-22T01:42:07.435Z,29.19
2023-04-22T01:43:07.490Z,29.19
2023-04-22T01:44:07.547Z,29.20
2023-04-22T01:45:07.607Z,29.18
2023-04-22T01:46:07.661Z,29.20
2023-04-22T01:47:07.664Z,29.21
2023-04-22T01:48:07.794Z,29.20
2023-04-22T01:49:07.775Z,29.19
2023-04-22T01:50:07.799Z,29.20
2023-04-22T01:51:07.857Z,29.19
2023-04-22T01:52:07.886Z,29.19
2023-04-22T01:53:07.919Z,29.19
2023-04-22T01:54:07.968Z,29.22
2023-04-22T01:55:08.009Z,29.18
2023-04-22T01:56:08.088Z,29.19
2023-04-22T01:57:08.115Z,29.18
2023-04-22T01:58:08.183Z,29.22
2023-04-22T01:59:08.212Z,29.18
2023-04-22T02:00:08.242Z,29.19
2023-04-22T02:01:08.292Z,29.20
2023-04-22T02:02:08.358Z,29.21
2023-04-22T02:03:08.420Z,29.21
2023-04-22T02:04:08.377Z,29.21
2023-04-22T02:05:08.457Z,29.21
2023-04-22T02:06:08.434Z,29.22
2023-04-22T02:07:08.446Z,29.21
2023-04-22T02:08:08.444Z,29.23
2023-04-22T02:09:08.520Z,29.22
2023-04-22T02:10:08.542Z,29.24
2023-04-22T02:11:08.638Z,29.21
2023-04-22T02:12:08.624Z,29.23
2023-04-22T02:13:08.680Z,29.20
2023-04-22T02:14:08.744Z,29.24
2023-04-22T02:15:08.781Z,29.25
2023-04-22T02:16:08.817Z,29.25
2023-04-22T02:17:08.798Z,29.24
2023-04-22T02:18:08.835Z,29.24
2023-04-22T02:19:08.889Z,29.22
2023-04-22T02:20:08.978Z,29.24
2023-04-22T02:21:08.970Z,29.24
2023-04-22T02:22:09.013Z,29.22
2023-04-22T02:23:09.089Z,29.21
2023-04-22T02:24:09.041Z,29.23
2023-04-22T02:25:09.049Z,29.21
2023-04-22T02:26:09.027Z,29.22
2023-04-22T02:27:09.010Z,29.22
2023-04-22T02:28:08.990Z,29.21
2023-04-22T02:29:08.983Z,29.21
2023-04-22T02:30:08.968Z,29.20
2023-04-22T02:31:08.997Z,29.22
2023-04-22T02:32:08.934Z,29.20
2023-04-22T02:33:08.984Z,29.24
2023-04-22T02:34:08.896Z,29.23
2023-04-22T02:35:08.887Z,29.23
2023-04-22T02:36:08.865Z,29.21
2023-04-22T02:37:08.850Z,29.23
2023-04-22T02:38:08.837Z,29.20
2023-04-22T02:39:08.839Z,29.24
2023-04-22T02:40:08.846Z,29.21
2023-04-22T02:41:08.864Z,29.23
2023-04-22T02:42:08.876Z,29.23
2023-04-22T02:43:08.911Z,29.25
2023-04-22T02:44:08.951Z,29.24
2023-04-22T02:45:09.024Z,29.22
2023-04-22T02:46:09.094Z,29.22
2023-04-22T02:47:09.257Z,29.23
2023-04-22T02:48:09.164Z,29.21
2023-04-22T02:49:09.104Z,29.23
2023-04-22T02:50:09.116Z,29.20
2023-04-22T02:51:09.167Z,29.20
2023-04-22T02:52:09.200Z,29.19
2023-04-22T02:53:09.231Z,29.16
2023-04-22T02:54:09.236Z,29.16
2023-04-22T02:55:09.283Z,29.18
2023-04-22T02:56:09.301Z,29.16
2023-04-22T02:57:09.356Z,29.15
2023-04-22T02:58:09.379Z,29.14
2023-04-22T02:59:09.435Z,29.14
2023-04-22T03:00:09.442Z,29.18
2023-04-22T03:01:09.478Z,29.15
2023-04-22T03:02:09.456Z,29.15
2023-04-22T03:03:09.530Z,29.15
2023-04-22T03:04:09.469Z,29.15
2023-04-22T03:05:09.376Z,29.14
2023-04-22T03:06:09.361Z,29.11
2023-04-22T03:07:09.352Z,29.11
2023-04-22T03:08:09.330Z,29.11
2023-04-22T03:09:09.332Z,29.14
2023-04-22T03:10:09.299Z,29.16
2023-04-22T03:11:09.297Z,29.13
2023-04-22T03:12:09.260Z,29.14
2023-04-22T03:13:09.246Z,29.16
2023-04-22T03:14:09.242Z,29.16
2023-04-22T03:15:09.237Z,29.13
2023-04-22T03:16:09.256Z,29.13
2023-04-22T03:17:09.208Z,29.14
2023-04-22T03:18:09.255Z,29.13
2023-04-22T03:19:09.177Z,29.12
2023-04-22T03:20:09.186Z,29.15
2023-04-22T03:21:09.165Z,29.13
2023-04-22T03:22:09.152Z,29.13
2023-04-22T03:23:09.144Z,29.15
2023-04-22T03:24:09.121Z,29.14
2023-04-22T03:25:09.110Z,29.12
2023-04-22T03:26:09.120Z,29.14
2023-04-22T03:27:09.087Z,29.14
2023-04-22T03:28:09.092Z,29.12
2023-04-22T03:29:09.056Z,29.11
2023-04-22T03:30:09.052Z,29.15
2023-04-22T03:31:09.080Z,29.11
2023-04-22T03:32:09.079Z,29.14
2023-04-22T03:33:09.055Z,29.14
2023-04-22T03:34:09.000Z,29.12
2023-04-22T03:35:08.982Z,29.10
2023-04-22T03:36:08.986Z,29.12
2023-04-22T03:37:08.964Z,29.14
2023-04-22T03:38:08.941Z,29.10
2023-04-22T03:39:08.934Z,29.09
2023-04-22T03:40:08.906Z,29.12
2023-04-22T03:41:08.889Z,29.08
2023-04-22T03:42:08.892Z,29.10
2023-04-22T03:43:08.875Z,29.09
2023-04-22T03:44:08.858Z,29.06
2023-04-22T03:45:08.857Z,29.06
2023-04-22T03:46:08.954Z,29.03
2023-04-22T03:47:08.817Z,29.04
2023-04-22T03:48:08.931Z,29.04
2023-04-22T03:49:08.784Z,29.05
2023-04-22T03:50:08.783Z,29.05
2023-04-22T03:51:08.783Z,29.06
2023-04-22T03:52:08.770Z,29.05
2023-04-22T03:53:08.736Z,29.06
2023-04-22T03:54:08.740Z,29.05
2023-04-22T03:55:08.718Z,29.03
2023-04-22T03:56:08.776Z,29.04
2023-04-22T03:57:08.694Z,29.03
2023-04-22T03:58:08.665Z,29.03
2023-04-22T03:59:08.650Z,29.07
2023-04-22T04:00:08.636Z,29.06
2023-04-22T04:01:08.625Z,29.09
2023-04-22T04:02:08.672Z,29.07
2023-04-22T04:03:08.906Z,29.06
2023-04-22T04:04:08.733Z,29.05
2023-04-22T04:05:08.652Z,29.06
2023-04-22T04:06:08.573Z,29.05
2023-04-22T04:07:08.568Z,29.05
2023-04-22T04:08:08.540Z,29.03
2023-04-22T04:09:08.542Z,29.02
2023-04-22T04:10:08.512Z,29.00
2023-04-22T04:11:08.511Z,29.00
2023-04-22T04:12:08.505Z,29.01
2023-04-22T04:13:08.477Z,29.03
2023-04-22T04:14:08.470Z,29.03
2023-04-22T04:15:08.465Z,29.02
2023-04-22T04:16:08.459Z,29.02
2023-04-22T04:17:08.438Z,28.99
2023-04-22T04:18:08.439Z,29.01
2023-04-22T04:19:08.771Z,29.00
2023-04-22T04:20:08.392Z,28.99
2023-04-22T04:21:08.395Z,29.00
2023-04-22T04:22:08.392Z,29.00
2023-04-22T04:23:08.364Z,29.03
2023-04-22T04:24:08.417Z,29.03
2023-04-22T04:25:08.352Z,29.03
2023-04-22T04:26:08.354Z,29.01
2023-04-22T04:27:08.347Z,29.01
2023-04-22T04:28:08.336Z,28.99
2023-04-22T04:29:08.346Z,28.98
2023-04-22T04:30:08.328Z,28.98
2023-04-22T04:31:08.412Z,28.97
2023-04-22T04:32:08.318Z,28.97
2023-04-22T04:33:08.313Z,28.98
2023-04-22T04:34:08.296Z,28.97
2023-04-22T04:35:08.272Z,29.00
2023-04-22T04:36:08.266Z,28.96
2023-04-22T04:37:08.245Z,28.93
2023-04-22T04:38:08.250Z,28.93
2023-04-22T04:39:08.233Z,28.94
2023-04-22T04:40:08.225Z,28.94
2023-04-22T04:41:08.204Z,28.95
2023-04-22T04:42:08.219Z,28.93
2023-04-22T04:43:08.240Z,28.93
2023-04-22T04:44:08.183Z,28.94
2023-04-22T04:45:08.190Z,28.92
2023-04-22T04:46:08.248Z,28.92
2023-04-22T04:47:08.185Z,28.93
2023-04-22T04:48:08.215Z,28.93
2023-04-22T04:49:08.158Z,28.93
2023-04-22T04:50:08.157Z,28.92
2023-04-22T04:51:08.168Z,28.94
2023-04-22T04:52:08.148Z,28.93
2023-04-22T04:53:08.118Z,28.96
2023-04-22T04:54:08.118Z,28.94
2023-04-22T04:55:08.111Z,28.91
2023-04-22T04:56:08.103Z,28.93
2023-04-22T04:57:08.090Z,28.92
2023-04-22T04:58:08.090Z,28.91
2023-04-22T04:59:08.082Z,28.91
2023-04-22T05:00:08.072Z,28.91
2023-04-22T05:01:08.069Z,28.90
2023-04-22T05:02:08.188Z,28.88
2023-04-22T05:03:08.336Z,28.87
2023-04-22T05:04:08.319Z,28.85
2023-04-22T05:05:08.070Z,28.84
2023-04-22T05:06:08.066Z,28.80
2023-04-22T05:07:08.044Z,28.81
2023-04-22T05:08:08.052Z,28.81
2023-04-22T05:09:08.264Z,28.82
2023-04-22T05:10:08.046Z,28.80
2023-04-22T05:11:08.050Z,28.81
2023-04-22T05:12:08.033Z,28.81
2023-04-22T05:13:08.195Z,28.80
2023-04-22T05:14:08.083Z,28.82
2023-04-22T05:15:08.126Z,28.82
2023-04-22T05:16:08.207Z,28.84
2023-04-22T05:17:08.117Z,28.82
2023-04-22T05:18:08.077Z,28.82
2023-04-22T05:19:08.104Z,28.81
2023-04-22T05:20:08.054Z,28.78
2023-04-22T05:21:08.009Z,28.76
2023-04-22T05:22:08.081Z,28.76
2023-04-22T05:23:08.089Z,28.76
2023-04-22T05:24:07.985Z,28.75
2023-04-22T05:25:07.974Z,28.73
2023-04-22T05:26:07.961Z,28.72
2023-04-22T05:27:07.970Z,28.72
2023-04-22T05:28:07.956Z,28.71
2023-04-22T05:29:07.983Z,28.70
2023-04-22T05:30:07.942Z,28.68
2023-04-22T05:31:07.923Z,28.66
2023-04-22T05:32:07.971Z,28.67
2023-04-22T05:33:07.961Z,28.67
2023-04-22T05:34:07.899Z,28.67
2023-04-22T05:35:07.873Z,28.68
2023-04-22T05:36:07.865Z,28.67
2023-04-22T05:37:07.848Z,28.65
2023-04-22T05:38:07.846Z,28.63
2023-04-22T05:39:07.841Z,28.62
2023-04-22T05:40:07.840Z,28.64
2023-04-22T05:41:07.802Z,28.65
2023-04-22T05:42:07.791Z,28.63
2023-04-22T05:43:07.799Z,28.65
2023-04-22T05:44:07.777Z,28.64
2023-04-22T05:45:07.764Z,28.64
2023-04-22T05:46:07.842Z,28.64
2023-04-22T05:47:07.738Z,28.62
2023-04-22T05:48:07.794Z,28.60
2023-04-22T05:49:07.738Z,28.63
2023-04-22T05:50:07.712Z,28.61
2023-04-22T05:51:07.705Z,28.60
2023-04-22T05:52:07.684Z,28.61
2023-04-22T05:53:07.729Z,28.61
2023-04-22T05:54:07.695Z,28.60
2023-04-22T05:55:07.653Z,28.60
2023-04-22T05:56:07.665Z,28.59
2023-04-22T05:57:07.697Z,28.60
2023-04-22T05:58:07.689Z,28.59
2023-04-22T05:59:07.690Z,28.58
2023-04-22T06:00:07.700Z,28.58
2023-04-22T06:01:07.737Z,28.61
2023-04-22T06:02:07.919Z,28.60
2023-04-22T06:03:08.153Z,28.59
2023-04-22T06:04:08.161Z,28.57
2023-04-22T06:05:08.135Z,28.58
2023-04-22T06:06:07.910Z,28.57
2023-04-22T06:07:07.913Z,28.56
2023-04-22T06:08:07.915Z,28.56
2023-04-22T06:09:07.949Z,28.56
2023-04-22T06:10:07.977Z,28.57
2023-04-22T06:11:08.035Z,28.58
2023-04-22T06:12:08.071Z,28.56
2023-04-22T06:13:08.135Z,28.54
2023-04-22T06:14:08.189Z,28.57
2023-04-22T06:15:08.248Z,28.55
2023-04-22T06:17:08.361Z,28.56
2023-04-22T06:18:08.420Z,28.55
2023-04-22T06:19:08.492Z,28.53
2023-04-22T06:20:08.553Z,28.53
2023-04-22T06:21:08.609Z,28.55
2023-04-22T06:22:08.688Z,28.53
2023-04-22T06:23:08.714Z,28.55
2023-04-22T06:24:08.749Z,28.55
2023-04-22T06:25:08.859Z,28.53
2023-04-22T06:26:08.892Z,28.52
2023-04-22T06:27:08.953Z,28.54
2023-04-22T06:28:08.995Z,28.51
2023-04-22T06:29:09.005Z,28.53
2023-04-22T06:30:08.973Z,28.50
2023-04-22T06:31:08.986Z,28.51
2023-04-22T06:32:08.954Z,28.49
2023-04-22T06:33:08.970Z,28.49
2023-04-22T06:34:08.924Z,28.49
2023-04-22T06:35:08.912Z,28.48
2023-04-22T06:36:08.930Z,28.47
2023-04-22T06:37:09.018Z,28.45
2023-04-22T06:38:08.982Z,28.41
2023-04-22T06:39:09.046Z,28.39
2023-04-22T06:40:09.119Z,28.36
2023-04-22T06:41:09.157Z,28.32
2023-04-22T06:42:09.226Z,28.31
2023-04-22T06:43:09.228Z,28.29
2023-04-22T06:44:09.282Z,28.29
2023-04-22T06:45:09.345Z,28.25
2023-04-22T06:46:09.391Z,28.25
2023-04-22T06:47:09.401Z,28.22
2023-04-22T06:48:09.444Z,28.19
2023-04-22T06:49:09.473Z,28.18
2023-04-22T06:50:09.510Z,28.15
2023-04-22T06:51:09.550Z,28.14
2023-04-22T06:52:09.588Z,28.11
2023-04-22T06:53:09.584Z,28.08
2023-04-22T06:54:09.611Z,28.05
2023-04-22T06:55:09.640Z,28.03
2023-04-22T06:56:09.660Z,28.01
2023-04-22T06:57:09.704Z,27.98
2023-04-22T06:58:09.715Z,27.97
2023-04-22T06:59:09.726Z,27.95
2023-04-22T07:00:09.732Z,27.93
2023-04-22T07:01:09.744Z,27.93
2023-04-22T07:02:09.804Z,27.91
2023-04-22T07:03:09.898Z,27.90
2023-04-22T07:04:09.834Z,27.87
2023-04-22T07:05:09.799Z,27.84
2023-04-22T07:06:09.815Z,27.85
2023-04-22T07:07:09.805Z,27.85
2023-04-22T07:08:09.805Z,27.85
2023-04-22T07:09:09.817Z,27.83
2023-04-22T07:10:09.849Z,27.83
2023-04-22T07:11:10.370Z,27.82
2023-04-22T07:12:09.847Z,27.82
2023-04-22T07:13:09.850Z,27.82
2023-04-22T07:14:09.866Z,27.82
2023-04-22T07:15:09.894Z,27.81
2023-04-22T07:16:09.983Z,27.82
2023-04-22T07:17:09.891Z,27.77
2023-04-22T07:18:09.889Z,27.76
2023-04-22T07:19:09.891Z,27.73
2023-04-22T07:20:09.865Z,27.69
2023-04-22T07:21:09.858Z,27.66
2023-04-22T07:22:09.859Z,27.65
2023-04-22T07:23:09.808Z,27.62
2023-04-22T07:24:09.800Z,27.61
2023-04-22T07:25:09.777Z,27.56
2023-04-22T07:26:09.771Z,27.55
2023-04-22T07:27:09.765Z,27.49
2023-04-22T07:28:09.723Z,27.46
2023-04-22T07:29:09.724Z,27.48
2023-04-22T07:30:09.689Z,27.51
2023-04-22T07:31:09.689Z,27.52
2023-04-22T07:32:09.779Z,27.51
2023-04-22T07:33:09.651Z,27.48
2023-04-22T07:34:09.646Z,27.47
2023-04-22T07:35:09.611Z,27.42
2023-04-22T07:36:09.608Z,27.44
2023-04-22T07:37:09.682Z,27.45
2023-04-22T07:38:10.749Z,27.44
2023-04-22T07:39:09.751Z,27.44
2023-04-22T07:40:09.659Z,27.45
2023-04-22T07:41:09.647Z,27.43
2023-04-22T07:42:09.629Z,27.46
2023-04-22T07:43:09.627Z,27.46
2023-04-22T07:44:09.595Z,27.47
2023-04-22T07:45:09.575Z,27.47
2023-04-22T07:46:09.607Z,27.48
2023-04-22T07:47:09.571Z,27.51
2023-04-22T07:48:09.549Z,27.51
2023-04-22T07:49:09.573Z,27.54
2023-04-22T07:50:09.500Z,27.52
2023-04-22T07:51:09.592Z,27.53
2023-04-22T07:52:09.471Z,27.54
2023-04-22T07:53:09.452Z,27.51
2023-04-22T07:54:09.436Z,27.51
2023-04-22T07:55:09.423Z,27.46
2023-04-22T07:56:09.420Z,27.38
2023-04-22T07:57:09.376Z,27.36
2023-04-22T07:58:09.362Z,27.31
2023-04-22T07:59:09.344Z,27.27
2023-04-22T08:00:09.313Z,27.23
2023-04-22T08:01:09.360Z,27.21
2023-04-22T08:02:09.356Z,27.17
2023-04-22T08:03:09.393Z,27.12
2023-04-22T08:04:09.433Z,27.11
2023-04-22T08:05:09.431Z,27.09
2023-04-22T08:06:09.315Z,27.08
2023-04-22T08:07:26.958Z,27.06
2023-04-22T08:08:10.295Z,27.04
2023-04-22T08:09:09.305Z,27.05
2023-04-22T08:10:09.249Z,27.04
2023-04-22T08:11:09.286Z,27.02
2023-04-22T08:12:09.220Z,26.98
2023-04-22T08:13:09.211Z,26.97
2023-04-22T08:14:09.204Z,26.96
2023-04-22T08:15:09.152Z,26.93
2023-04-22T08:16:09.288Z,26.96
2023-04-22T08:17:09.134Z,26.93
2023-04-22T08:18:09.184Z,26.93
2023-04-22T08:19:09.159Z,26.91
2023-04-22T08:20:09.279Z,26.92
2023-04-22T08:21:09.233Z,26.86
2023-04-22T08:22:09.303Z,26.89
2023-04-22T08:23:09.318Z,26.84
2023-04-22T08:24:09.338Z,26.86
2023-04-22T08:25:09.362Z,26.84
2023-04-22T08:26:09.380Z,26.84
2023-04-22T08:27:09.400Z,26.85
2023-04-22T08:28:09.419Z,26.83
2023-04-22T08:29:09.460Z,26.84
2023-04-22T08:30:09.483Z,26.81
2023-04-22T08:31:09.534Z,26.83
2023-04-22T08:32:09.626Z,26.80
2023-04-22T08:33:09.547Z,26.82
2023-04-22T08:34:09.560Z,26.80
2023-04-22T08:35:09.581Z,26.79
2023-04-22T08:36:09.610Z,26.81
2023-04-22T08:37:09.622Z,26.78
2023-04-22T08:38:09.626Z,26.76
2023-04-22T08:39:09.652Z,26.73
2023-04-22T08:40:09.659Z,26.73
2023-04-22T08:41:09.695Z,26.72
2023-04-22T08:42:09.701Z,26.73
2023-04-22T08:43:09.716Z,26.71
2023-04-22T08:44:09.715Z,26.72
2023-04-22T08:45:09.772Z,26.71
2023-04-22T08:46:09.763Z,26.70
2023-04-22T08:47:09.882Z,26.71
2023-04-22T08:48:09.755Z,26.65
2023-04-22T08:49:09.742Z,26.64
2023-04-22T08:50:09.803Z,26.66
2023-04-22T08:51:09.755Z,26.64
2023-04-22T08:52:09.741Z,26.64
2023-04-22T08:53:09.736Z,26.62
2023-04-22T08:54:09.719Z,26.62
2023-04-22T08:55:09.718Z,26.61
2023-04-22T08:56:09.701Z,26.59
2023-04-22T08:57:09.697Z,26.59
2023-04-22T08:58:09.700Z,26.57
2023-04-22T08:59:09.668Z,26.58
2023-04-22T09:00:09.670Z,26.60
2023-04-22T09:01:09.666Z,26.58
2023-04-22T09:02:09.671Z,26.57
2023-04-22T09:03:09.665Z,26.57
2023-04-22T09:04:09.645Z,26.55
2023-04-22T09:05:09.562Z,26.55
2023-04-22T09:06:09.543Z,26.54
2023-04-22T09:07:09.545Z,26.57
2023-04-22T09:08:09.503Z,26.56
2023-04-22T09:09:09.483Z,26.57
2023-04-22T09:10:09.451Z,26.57
2023-04-22T09:11:09.444Z,26.56
2023-04-22T09:12:09.423Z,26.56
2023-04-22T09:13:09.403Z,26.57
2023-04-22T09:14:09.383Z,26.57
2023-04-22T09:15:09.367Z,26.57
2023-04-22T09:16:09.376Z,26.56
2023-04-22T09:17:09.328Z,26.57
2023-04-22T09:18:09.339Z,26.57
2023-04-22T09:19:09.352Z,26.58
2023-04-22T09:20:09.282Z,26.56
2023-04-22T09:21:09.295Z,26.59
2023-04-22T09:22:09.250Z,26.58
2023-04-22T09:23:09.246Z,26.56
2023-04-22T09:24:09.206Z,26.58
2023-04-22T09:25:09.188Z,26.59
2023-04-22T09:26:09.187Z,26.61
2023-04-22T09:27:09.141Z,26.59
2023-04-22T09:28:09.119Z,26.59
2023-04-22T09:29:09.104Z,26.61
2023-04-22T09:30:09.081Z,26.61
2023-04-22T09:31:09.117Z,26.61
2023-04-22T09:32:09.170Z,26.64
2023-04-22T09:33:09.135Z,26.64
2023-04-22T09:34:09.015Z,26.62
2023-04-22T09:35:08.999Z,26.62
2023-04-22T09:36:08.984Z,26.60
2023-04-22T09:37:08.974Z,26.61
2023-04-22T09:38:08.961Z,26.62
2023-04-22T09:39:08.936Z,26.63
2023-04-22T09:40:08.911Z,26.65
2023-04-22T09:41:08.904Z,26.63
2023-04-22T09:42:08.880Z,26.64
2023-04-22T09:43:08.860Z,26.65
2023-04-22T09:44:08.842Z,26.64
2023-04-22T09:45:08.828Z,26.66
2023-04-22T09:46:08.867Z,26.63
2023-04-22T09:47:08.804Z,26.63
2023-04-22T09:48:08.785Z,26.63
2023-04-22T09:49:08.763Z,26.66
2023-04-22T09:50:08.736Z,26.65
2023-04-22T09:51:08.730Z,26.65
2023-04-22T09:52:08.732Z,26.67
2023-04-22T09:53:08.812Z,26.66
2023-04-22T09:54:08.784Z,26.66
2023-04-22T09:55:08.726Z,26.67
2023-04-22T09:56:08.708Z,26.66
2023-04-22T09:57:08.958Z,26.66
2023-04-22T09:58:08.663Z,26.65
2023-04-22T09:59:08.643Z,26.70
2023-04-22T10:00:08.615Z,26.69
2023-04-22T10:01:08.640Z,26.68
2023-04-22T10:02:08.612Z,26.70
2023-04-22T10:03:10.625Z,26.71
2023-04-22T10:04:08.710Z,26.71
2023-04-22T10:05:08.724Z,26.71
2023-04-22T10:06:08.791Z,26.71
2023-04-22T10:07:08.830Z,26.73
2023-04-22T10:08:08.998Z,26.72
2023-04-22T10:09:09.594Z,26.71
2023-04-22T10:10:08.955Z,26.70
2023-04-22T10:11:09.007Z,26.72
2023-04-22T10:12:09.041Z,26.70
2023-04-22T10:13:09.107Z,26.71
2023-04-22T10:14:09.142Z,26.71
2023-04-22T10:15:09.138Z,26.72
2023-04-22T10:16:09.150Z,26.71
2023-04-22T10:17:09.209Z,26.71
2023-04-22T10:18:09.183Z,26.71
2023-04-22T10:19:09.203Z,26.69
2023-04-22T10:20:09.267Z,26.70
2023-04-22T10:21:09.321Z,26.69
2023-04-22T10:22:09.341Z,26.69
2023-04-22T10:23:09.422Z,26.68
2023-04-22T10:24:09.404Z,26.71
2023-04-22T10:25:09.447Z,26.70
2023-04-22T10:26:09.537Z,26.68
2023-04-22T10:27:09.541Z,26.70
2023-04-22T10:28:09.599Z,26.70
2023-04-22T10:29:09.613Z,26.66
2023-04-22T10:30:09.671Z,26.66
2023-04-22T10:31:09.757Z,26.67
2023-04-22T10:32:10.885Z,26.63
2023-04-22T10:33:09.827Z,26.66
2023-04-22T10:34:09.888Z,26.65
2023-04-22T10:35:09.956Z,26.66
2023-04-22T10:36:09.982Z,26.67
2023-04-22T10:37:10.024Z,26.66
2023-04-22T10:38:10.073Z,26.66
2023-04-22T10:39:10.119Z,26.65
2023-04-22T10:40:10.175Z,26.65
2023-04-22T10:41:10.211Z,26.63
2023-04-22T10:42:10.298Z,26.63
2023-04-22T10:43:10.313Z,26.63
2023-04-22T10:44:10.380Z,26.66
2023-04-22T10:45:10.420Z,26.64
2023-04-22T10:46:10.529Z,26.65
2023-04-22T10:47:10.509Z,26.65
2023-04-22T10:48:10.561Z,26.64
2023-04-22T10:49:10.614Z,26.65
2023-04-22T10:50:10.703Z,26.65
2023-04-22T10:51:10.742Z,26.65
2023-04-22T10:52:10.796Z,26.65
2023-04-22T10:53:10.844Z,26.64
2023-04-22T10:54:10.886Z,26.64
2023-04-22T10:55:10.940Z,26.63
2023-04-22T10:56:10.985Z,26.63
2023-04-22T10:57:11.036Z,26.65
2023-04-22T10:58:11.065Z,26.64
2023-04-22T10:59:11.107Z,26.64
2023-04-22T11:00:11.163Z,26.63
2023-04-22T11:01:11.273Z,26.63
2023-04-22T11:02:11.347Z,26.64
2023-04-22T11:03:11.416Z,26.63
2023-04-22T11:04:11.505Z,26.63
2023-04-22T11:05:11.407Z,26.62
2023-04-22T11:06:11.445Z,26.61
2023-04-22T11:07:11.486Z,26.63
2023-04-22T11:08:11.552Z,26.63
2023-04-22T11:09:11.593Z,26.63
2023-04-22T11:10:11.650Z,26.63
2023-04-22T11:11:11.703Z,26.63
2023-04-22T11:12:11.727Z,26.66
2023-04-22T11:13:11.705Z,26.64
2023-04-22T11:14:11.695Z,26.64
2023-04-22T11:15:11.694Z,26.65
2023-04-22T11:16:11.768Z,26.64
2023-04-22T11:17:11.658Z,26.65
2023-04-22T11:18:11.643Z,26.62
2023-04-22T11:19:11.636Z,26.62
2023-04-22T11:20:11.610Z,26.63
2023-04-22T11:21:11.649Z,26.64
2023-04-22T11:22:11.570Z,26.64
2023-04-22T11:23:11.615Z,26.64
2023-04-22T11:24:11.537Z,26.60
2023-04-22T11:25:11.524Z,26.60
2023-04-22T11:26:11.549Z,26.61
2023-04-22T11:27:11.477Z,26.61
2023-04-22T11:28:11.472Z,26.65
2023-04-22T11:29:11.518Z,26.62
2023-04-22T11:30:11.418Z,26.63
2023-04-22T11:31:11.458Z,26.62
2023-04-22T11:32:11.442Z,26.61
2023-04-22T11:33:11.511Z,26.61
2023-04-22T11:34:11.579Z,26.60
2023-04-22T11:35:11.602Z,26.61
2023-04-22T11:36:11.646Z,26.61
2023-04-22T11:37:11.649Z,26.60
2023-04-22T11:38:11.638Z,26.60
2023-04-22T11:39:11.772Z,26.59
2023-04-22T11:40:25.415Z,26.60
2023-04-22T11:41:12.690Z,26.59
2023-04-22T11:42:11.670Z,26.60
2023-04-22T11:43:11.685Z,26.59
2023-04-22T11:44:11.669Z,26.58
2023-04-22T11:45:11.617Z,26.57
2023-04-22T11:46:11.730Z,26.59
2023-04-22T11:47:11.682Z,26.58
2023-04-22T11:48:11.686Z,26.59
2023-04-22T11:49:11.527Z,26.59
2023-04-22T11:50:11.511Z,26.58
2023-04-22T11:51:11.530Z,26.58
2023-04-22T11:52:11.515Z,26.58
2023-04-22T11:53:11.527Z,26.58
2023-04-22T11:54:11.553Z,26.55
2023-04-22T11:55:11.562Z,26.56
2023-04-22T11:56:11.610Z,26.55
2023-04-22T11:57:11.627Z,26.54
2023-04-22T11:58:11.751Z,26.56
2023-04-22T11:59:11.779Z,26.56
2023-04-22T12:00:11.706Z,26.57
2023-04-22T12:01:11.767Z,26.54
2023-04-22T12:02:11.825Z,26.53
2023-04-22T12:03:14.714Z,26.54
2023-04-22T12:04:11.774Z,26.54
2023-04-22T12:05:11.653Z,26.55
2023-04-22T12:06:11.578Z,26.53
2023-04-22T12:07:11.542Z,26.54
2023-04-22T12:08:11.527Z,26.54
2023-04-22T12:09:12.681Z,26.55
2023-04-22T12:10:11.489Z,26.55
2023-04-22T12:11:11.524Z,26.55
2023-04-22T12:12:11.525Z,26.56
2023-04-22T12:13:11.553Z,26.55
2023-04-22T12:14:11.556Z,26.54
2023-04-22T12:15:13.452Z,26.56
2023-04-22T12:16:11.600Z,26.55
2023-04-22T12:17:11.631Z,26.53
2023-04-22T12:18:11.628Z,26.54
2023-04-22T12:19:11.639Z,26.53
2023-04-22T12:20:11.712Z,26.52
2023-04-22T12:21:11.677Z,26.52
2023-04-22T12:22:11.701Z,26.53
2023-04-22T12:23:11.697Z,26.52
2023-04-22T12:24:11.713Z,26.52
2023-04-22T12:25:11.736Z,26.52
2023-04-22T12:26:11.765Z,26.53
2023-04-22T12:27:11.789Z,26.53
2023-04-22T12:28:11.794Z,26.52
2023-04-22T12:29:11.784Z,26.54
2023-04-22T12:30:11.794Z,26.52
2023-04-22T12:31:11.782Z,26.54
2023-04-22T12:32:11.696Z,26.53
2023-04-22T12:33:11.667Z,26.54
2023-04-22T12:34:11.646Z,26.54
2023-04-22T12:35:11.625Z,26.55
2023-04-22T12:36:11.608Z,26.53
2023-04-22T12:37:11.586Z,26.56
2023-04-22T12:38:11.585Z,26.55
2023-04-22T12:39:11.607Z,26.54
2023-04-22T12:40:11.530Z,26.52
2023-04-22T12:41:11.527Z,26.53
2023-04-22T12:42:11.488Z,26.51
2023-04-22T12:43:11.475Z,26.51
2023-04-22T12:44:11.488Z,26.48
2023-04-22T12:45:11.506Z,26.49
2023-04-22T12:46:11.553Z,26.49
2023-04-22T12:47:11.508Z,26.49
2023-04-22T12:48:11.543Z,26.49
2023-04-22T12:49:11.544Z,26.50
2023-04-22T12:50:11.617Z,26.48
2023-04-22T12:51:11.547Z,26.49
2023-04-22T12:52:11.575Z,26.46
2023-04-22T12:53:11.580Z,26.48